createdAt,value
2022-12-17T00:00:18.203Z,961.33
2022-12-17T00:01:17.793Z,961.36
2022-12-17T00:05:17.568Z,961.39
2022-12-17T00:06:17.661Z,961.4
2022-12-17T00:08:17.705Z,961.42
2022-12-17T00:10:17.759Z,961.45
2022-12-17T00:11:17.582Z,961.46
2022-12-17T00:12:17.580Z,961.44
2022-12-17T00:14:17.593Z,961.48
2022-12-17T00:15:17.658Z,961.46
2022-12-17T00:16:17.781Z,961.44
2022-12-17T00:17:17.622Z,961.49
2022-12-17T00:18:17.590Z,961.51
2022-12-17T00:19:17.752Z,961.48
2022-12-17T00:20:17.706Z,961.44
2022-12-17T00:21:17.599Z,961.48
2022-12-17T00:22:17.742Z,961.54
2022-12-17T00:23:17.602Z,961.56
2022-12-17T00:24:17.601Z,961.59
2022-12-17T00:25:17.755Z,961.61
2022-12-17T00:26:17.750Z,961.58
2022-12-17T00:27:17.688Z,961.6
2022-12-17T00:28:17.611Z,961.65
2022-12-17T00:29:17.618Z,961.63
2022-12-17T00:30:17.628Z,961.66
2022-12-17T00:31:17.800Z,961.7
2022-12-17T00:32:17.741Z,961.71
2022-12-17T00:33:17.704Z,961.73
2022-12-17T00:35:17.747Z,961.75
2022-12-17T00:36:17.693Z,961.79
2022-12-17T00:37:17.767Z,961.8
2022-12-17T00:39:17.698Z,961.85
2022-12-17T00:40:17.777Z,961.82
2022-12-17T00:41:17.646Z,961.84
2022-12-17T00:42:17.708Z,961.86
2022-12-17T00:44:17.651Z,961.84
2022-12-17T00:45:17.704Z,961.83
2022-12-17T00:46:17.759Z,961.82
2022-12-17T00:47:17.667Z,961.84
2022-12-17T00:48:17.815Z,961.88
2022-12-17T00:49:17.661Z,961.87
2022-12-17T00:50:17.664Z,961.89
2022-12-17T00:52:17.763Z,961.86
2022-12-17T00:53:17.723Z,961.9
2022-12-17T00:54:17.820Z,961.91
2022-12-17T00:55:17.807Z,961.93
2022-12-17T00:56:17.687Z,961.96
2022-12-17T00:57:17.681Z,962.02
2022-12-17T00:59:17.698Z,962.03
2022-12-17T01:00:17.836Z,962.05
2022-12-17T01:01:17.777Z,962.06
2022-12-17T01:02:17.765Z,962.07
2022-12-17T01:03:17.866Z,962.05
2022-12-17T01:04:17.701Z,962.07
2022-12-17T01:05:17.772Z,962.05
2022-12-17T01:06:17.839Z,962.06
2022-12-17T01:07:17.804Z,962.09
2022-12-17T01:09:18.864Z,962.11
2022-12-17T01:10:17.816Z,962.08
2022-12-17T01:11:17.787Z,962.13
2022-12-17T01:13:17.816Z,962.15
2022-12-17T01:14:17.719Z,962.16
2022-12-17T01:15:17.844Z,962.14
2022-12-17T01:16:17.882Z,962.17
2022-12-17T01:17:17.880Z,962.2
2022-12-17T01:18:17.741Z,962.14
2022-12-17T01:19:17.815Z,962.19
2022-12-17T01:22:17.833Z,962.16
2022-12-17T01:23:17.891Z,962.17
2022-12-17T01:24:17.758Z,962.21
2022-12-17T01:25:17.743Z,962.25
2022-12-17T01:26:17.792Z,962.3
2022-12-17T01:27:17.748Z,962.28
2022-12-17T01:29:17.907Z,962.31
2022-12-17T01:30:17.875Z,962.32
2022-12-17T01:31:17.862Z,962.34
2022-12-17T01:32:17.902Z,962.33
2022-12-17T01:33:17.871Z,962.37
2022-12-17T01:34:17.758Z,962.33
2022-12-17T01:36:17.863Z,962.35
2022-12-17T01:37:17.780Z,962.34
2022-12-17T01:38:17.926Z,962.3
2022-12-17T01:39:17.873Z,962.35
2022-12-17T01:40:17.781Z,962.32
2022-12-17T01:41:17.929Z,962.35
2022-12-17T01:42:17.878Z,962.33
2022-12-17T01:43:17.862Z,962.35
2022-12-17T01:45:17.799Z,962.38
2022-12-17T01:47:17.914Z,962.39
2022-12-17T01:48:17.798Z,962.37
2022-12-17T01:49:17.961Z,962.33
2022-12-17T01:50:17.939Z,962.34
2022-12-17T01:51:17.808Z,962.39
2022-12-17T01:52:17.961Z,962.38
2022-12-17T01:53:17.825Z,962.36
2022-12-17T01:54:17.902Z,962.37
2022-12-17T01:55:17.975Z,962.36
2022-12-17T01:56:17.829Z,962.4
2022-12-17T01:57:17.958Z,962.39
2022-12-17T01:58:17.964Z,962.42
2022-12-17T01:59:17.831Z,962.41
2022-12-17T02:00:17.905Z,962.43
2022-12-17T02:01:17.895Z,962.44
2022-12-17T02:02:17.949Z,962.49
2022-12-17T02:03:17.965Z,962.48
2022-12-17T02:04:17.840Z,962.5
2022-12-17T02:05:17.847Z,962.52
2022-12-17T02:06:17.925Z,962.53
2022-12-17T02:07:19.628Z,962.54
2022-12-17T02:08:17.954Z,962.55
2022-12-17T02:09:17.935Z,962.59
2022-12-17T02:10:18.102Z,962.61
2022-12-17T02:11:17.858Z,962.59
2022-12-17T02:12:17.931Z,962.55
2022-12-17T02:13:17.892Z,962.56
2022-12-17T02:14:17.858Z,962.58
2022-12-17T02:15:17.870Z,962.57
2022-12-17T02:17:17.973Z,962.59
2022-12-17T02:19:18.007Z,962.61
2022-12-17T02:20:17.867Z,962.64
2022-12-17T02:22:19.426Z,962.62
2022-12-17T02:24:18.048Z,962.63
2022-12-17T02:25:18.017Z,962.6
2022-12-17T02:26:17.970Z,962.59
2022-12-17T02:27:17.887Z,962.6
2022-12-17T02:28:18.018Z,962.61
2022-12-17T02:29:17.977Z,962.64
2022-12-17T02:30:17.889Z,962.6
2022-12-17T02:31:17.919Z,962.63
2022-12-17T02:32:17.981Z,962.62
2022-12-17T02:33:17.889Z,962.63
2022-12-17T02:34:18.020Z,962.64
2022-12-17T02:35:17.984Z,962.7
2022-12-17T02:36:17.920Z,962.69
2022-12-17T02:37:17.908Z,962.66
2022-12-17T02:39:17.898Z,962.6
2022-12-17T02:40:18.021Z,962.64
2022-12-17T02:41:17.998Z,962.61
2022-12-17T02:42:18.068Z,962.65
2022-12-17T02:44:17.999Z,962.66
2022-12-17T02:45:17.929Z,962.69
2022-12-17T02:46:18.071Z,962.66
2022-12-17T02:47:18.006Z,962.69
2022-12-17T02:48:18.078Z,962.68
2022-12-17T02:49:18.055Z,962.7
2022-12-17T02:50:18.009Z,962.69
2022-12-17T02:51:18.091Z,962.71
2022-12-17T02:52:18.035Z,962.72
2022-12-17T02:53:18.019Z,962.73
2022-12-17T02:55:18.094Z,962.75
2022-12-17T02:56:17.976Z,962.78
2022-12-17T02:57:22.369Z,962.8
2022-12-17T02:58:18.068Z,962.78
2022-12-17T02:59:18.013Z,962.74
2022-12-17T03:00:17.991Z,962.73
2022-12-17T03:01:18.112Z,962.75
2022-12-17T03:02:18.197Z,962.77
2022-12-17T03:04:18.073Z,962.78
2022-12-17T03:05:43.230Z,962.8
2022-12-17T03:06:18.251Z,962.77
2022-12-17T03:07:17.973Z,962.81
2022-12-17T03:08:19.418Z,962.86
2022-12-17T03:10:18.183Z,962.91
2022-12-17T03:11:19.437Z,962.87
2022-12-17T03:14:18.150Z,962.88
2022-12-17T03:16:18.031Z,962.84
2022-12-17T03:17:18.022Z,962.9
2022-12-17T03:18:18.119Z,962.86
2022-12-17T03:19:18.019Z,962.88
2022-12-17T03:20:18.013Z,962.83
2022-12-17T03:21:18.213Z,962.79
2022-12-17T03:22:18.086Z,962.87
2022-12-17T03:23:18.157Z,962.84
2022-12-17T03:25:18.087Z,962.88
2022-12-17T03:26:18.163Z,962.9
2022-12-17T03:27:18.038Z,962.91
2022-12-17T03:28:18.044Z,962.93
2022-12-17T03:29:18.168Z,962.94
2022-12-17T03:30:18.124Z,962.92
2022-12-17T03:31:18.329Z,962.95
2022-12-17T03:33:18.142Z,962.98
2022-12-17T03:34:18.202Z,962.9
2022-12-17T03:35:18.179Z,962.99
2022-12-17T03:36:18.131Z,962.97
2022-12-17T03:37:18.042Z,963.02
2022-12-17T03:38:18.170Z,962.96
2022-12-17T03:39:18.054Z,963
2022-12-17T03:40:18.213Z,962.96
2022-12-17T03:42:18.175Z,962.97
2022-12-17T03:43:18.066Z,962.95
2022-12-17T03:44:18.058Z,962.97
2022-12-17T03:45:18.188Z,963
2022-12-17T03:46:18.312Z,963.02
2022-12-17T03:47:18.186Z,963.01
2022-12-17T03:48:18.155Z,963.02
2022-12-17T03:49:18.224Z,963.03
2022-12-17T03:50:18.184Z,963.02
2022-12-17T03:51:18.159Z,963.04
2022-12-17T03:52:18.220Z,962.98
2022-12-17T03:53:18.195Z,963.1
2022-12-17T03:54:18.155Z,963.06
2022-12-17T03:55:18.101Z,963.08
2022-12-17T03:56:18.201Z,963.05
2022-12-17T03:58:18.236Z,963.09
2022-12-17T03:59:18.207Z,963.12
2022-12-17T04:00:18.171Z,963.14
2022-12-17T04:01:18.319Z,963.13
2022-12-17T04:02:18.417Z,963.18
2022-12-17T04:03:18.345Z,963.15
2022-12-17T04:04:18.237Z,963.14
2022-12-17T04:05:20.266Z,963.13
2022-12-17T04:06:18.180Z,963.14
2022-12-17T04:09:18.364Z,963.03
2022-12-17T04:10:18.272Z,963.16
2022-12-17T04:11:18.216Z,963.17
2022-12-17T04:12:18.135Z,963.15
2022-12-17T04:14:18.136Z,963.14
2022-12-17T04:15:18.217Z,963.16
2022-12-17T04:16:18.291Z,963.14
2022-12-17T04:17:18.217Z,963.13
2022-12-17T04:18:18.302Z,963.05
2022-12-17T04:19:18.273Z,963.15
2022-12-17T04:22:18.373Z,963.14
2022-12-17T04:23:18.175Z,963.18
2022-12-17T04:24:18.178Z,963.22
2022-12-17T04:25:18.282Z,963.18
2022-12-17T04:26:18.240Z,963.2
2022-12-17T04:27:19.792Z,963.22
2022-12-17T04:28:18.235Z,963.23
2022-12-17T04:30:18.325Z,963.24
2022-12-17T04:31:18.310Z,963.27
2022-12-17T04:32:18.243Z,963.32
2022-12-17T04:33:18.179Z,963.27
2022-12-17T04:34:18.281Z,963.29
2022-12-17T04:35:18.189Z,963.21
2022-12-17T04:36:18.182Z,963.25
2022-12-17T04:37:18.276Z,963.28
2022-12-17T04:38:18.262Z,963.26
2022-12-17T04:39:18.317Z,963.35
2022-12-17T04:40:18.191Z,963.34
2022-12-17T04:41:18.357Z,963.35
2022-12-17T04:42:18.328Z,963.33
2022-12-17T04:43:18.195Z,963.32
2022-12-17T04:44:18.251Z,963.31
2022-12-17T04:45:18.332Z,963.33
2022-12-17T04:46:18.330Z,963.19
2022-12-17T04:47:18.259Z,963.37
2022-12-17T04:48:18.223Z,963.31
2022-12-17T04:49:18.294Z,963.32
2022-12-17T04:50:18.373Z,963.36
2022-12-17T04:51:18.226Z,963.39
2022-12-17T04:52:18.213Z,963.37
2022-12-17T04:53:18.362Z,963.39
2022-12-17T04:54:18.334Z,963.44
2022-12-17T04:55:18.210Z,963.43
2022-12-17T04:56:18.235Z,963.44
2022-12-17T04:57:18.346Z,963.5
2022-12-17T04:58:18.314Z,963.46
2022-12-17T04:59:18.389Z,963.49
2022-12-17T05:00:18.340Z,963.53
2022-12-17T05:01:18.369Z,963.52
2022-12-17T05:02:19.521Z,963.5
2022-12-17T05:04:18.388Z,963.52
2022-12-17T05:06:18.369Z,963.54
2022-12-17T05:07:18.323Z,963.57
2022-12-17T05:08:18.381Z,963.56
2022-12-17T05:09:18.399Z,963.5
2022-12-17T05:10:18.337Z,963.57
2022-12-17T05:11:18.394Z,963.59
2022-12-17T05:12:18.365Z,963.58
2022-12-17T05:13:19.520Z,963.6
2022-12-17T05:14:18.408Z,963.63
2022-12-17T05:15:18.366Z,963.64
2022-12-17T05:16:18.385Z,963.66
2022-12-17T05:17:18.432Z,963.63
2022-12-17T05:18:18.371Z,963.51
2022-12-17T05:19:18.330Z,963.66
2022-12-17T05:20:18.404Z,963.59
2022-12-17T05:21:18.384Z,963.6
2022-12-17T05:23:18.300Z,963.63
2022-12-17T05:24:18.288Z,963.65
2022-12-17T05:25:19.587Z,963.66
2022-12-17T05:27:18.385Z,963.64
2022-12-17T05:29:18.321Z,963.72
2022-12-17T05:31:18.559Z,963.75
2022-12-17T05:32:18.426Z,963.72
2022-12-17T05:33:18.403Z,963.71
2022-12-17T05:34:18.456Z,963.83
2022-12-17T05:35:18.427Z,963.65
2022-12-17T05:36:18.397Z,963.8
2022-12-17T05:37:18.470Z,963.73
2022-12-17T05:38:18.441Z,963.82
2022-12-17T05:39:18.403Z,963.83
2022-12-17T05:40:18.475Z,963.85
2022-12-17T05:41:18.433Z,963.73
2022-12-17T05:42:18.401Z,963.87
2022-12-17T05:43:18.339Z,963.91
2022-12-17T05:44:18.329Z,963.9
2022-12-17T05:45:18.395Z,963.96
2022-12-17T05:46:18.365Z,963.91
2022-12-17T05:47:18.442Z,963.89
2022-12-17T05:48:18.517Z,963.91
2022-12-17T05:51:18.515Z,963.94
2022-12-17T05:52:18.342Z,963.95
2022-12-17T05:53:18.444Z,963.96
2022-12-17T05:54:18.412Z,963.95
2022-12-17T05:55:18.496Z,963.98
2022-12-17T05:56:18.456Z,963.87
2022-12-17T05:57:18.512Z,963.8
2022-12-17T05:58:18.496Z,963.94
2022-12-17T05:59:18.452Z,963.95
2022-12-17T06:00:18.526Z,963.98
2022-12-17T06:01:18.423Z,963.95
2022-12-17T06:02:18.489Z,963.98
2022-12-17T06:04:18.557Z,963.91
2022-12-17T06:05:18.656Z,963.97
2022-12-17T06:06:18.386Z,964.09
2022-12-17T06:07:18.396Z,964.06
2022-12-17T06:08:18.409Z,964.13
2022-12-17T06:09:18.553Z,964.03
2022-12-17T06:10:18.498Z,964.17
2022-12-17T06:11:18.394Z,964.16
2022-12-17T06:12:18.549Z,964.09
2022-12-17T06:13:18.411Z,964.15
2022-12-17T06:14:18.464Z,964.07
2022-12-17T06:15:18.410Z,964.17
2022-12-17T06:16:18.466Z,964.11
2022-12-17T06:17:18.419Z,964.15
2022-12-17T06:18:18.443Z,964.13
2022-12-17T06:19:18.425Z,964.03
2022-12-17T06:20:18.407Z,964.16
2022-12-17T06:21:18.551Z,964.12
2022-12-17T06:22:18.422Z,964.21
2022-12-17T06:23:18.482Z,964.14
2022-12-17T06:24:18.439Z,964.19
2022-12-17T06:25:18.512Z,964.11
2022-12-17T06:26:18.478Z,964.22
2022-12-17T06:27:18.433Z,964.13
2022-12-17T06:28:18.434Z,964.19
2022-12-17T06:29:18.583Z,964.06
2022-12-17T06:30:19.161Z,964.24
2022-12-17T06:31:18.460Z,964.16
2022-12-17T06:32:19.902Z,964.27
2022-12-17T06:33:18.441Z,964.18
2022-12-17T06:34:18.528Z,964.24
2022-12-17T06:35:18.500Z,964.3
2022-12-17T06:36:22.336Z,964.17
2022-12-17T06:37:18.829Z,964.21
2022-12-17T06:38:19.423Z,964.22
2022-12-17T06:39:18.577Z,964.26
2022-12-17T06:40:18.536Z,964.22
2022-12-17T06:41:19.425Z,964.29
2022-12-17T06:42:18.604Z,964.26
2022-12-17T06:43:18.552Z,964.31
2022-12-17T06:44:18.625Z,964.32
2022-12-17T06:46:18.579Z,964.34
2022-12-17T06:48:18.673Z,964.42
2022-12-17T06:49:18.559Z,964.46
2022-12-17T06:50:18.475Z,964.37
2022-12-17T06:51:18.584Z,964.45
2022-12-17T06:52:18.565Z,964.47
2022-12-17T06:53:18.516Z,964.43
2022-12-17T06:54:18.583Z,964.49
2022-12-17T06:56:18.497Z,964.39
2022-12-17T06:57:18.598Z,964.49
2022-12-17T06:58:18.553Z,964.54
2022-12-17T06:59:18.637Z,964.49
2022-12-17T07:00:18.583Z,964.57
2022-12-17T07:01:18.743Z,964.61
2022-12-17T07:02:18.707Z,964.64
2022-12-17T07:03:18.652Z,964.63
2022-12-17T07:04:18.527Z,964.47
2022-12-17T07:05:18.641Z,964.65
2022-12-17T07:06:18.624Z,964.62
2022-12-17T07:07:18.594Z,964.63
2022-12-17T07:09:18.633Z,964.59
2022-12-17T07:10:18.698Z,964.71
2022-12-17T07:11:18.651Z,964.64
2022-12-17T07:12:18.623Z,964.7
2022-12-17T07:13:18.727Z,964.65
2022-12-17T07:14:18.641Z,964.72
2022-12-17T07:15:18.535Z,964.73
2022-12-17T07:16:18.565Z,964.72
2022-12-17T07:17:18.665Z,964.74
2022-12-17T07:18:18.626Z,964.76
2022-12-17T07:20:18.657Z,964.78
2022-12-17T07:21:18.633Z,964.75
2022-12-17T07:22:18.567Z,964.85
2022-12-17T07:23:18.678Z,964.84
2022-12-17T07:24:18.663Z,964.8
2022-12-17T07:25:18.569Z,964.89
2022-12-17T07:26:18.672Z,964.9
2022-12-17T07:27:18.638Z,964.85
2022-12-17T07:28:18.602Z,964.93
2022-12-17T07:29:18.671Z,964.94
2022-12-17T07:30:18.634Z,964.88
2022-12-17T07:31:18.764Z,964.96
2022-12-17T07:33:18.643Z,964.97
2022-12-17T07:34:18.616Z,964.99
2022-12-17T07:36:18.657Z,964.98
2022-12-17T07:37:20.705Z,965.03
2022-12-17T07:38:18.584Z,965.05
2022-12-17T07:39:18.665Z,964.96
2022-12-17T07:40:18.604Z,964.94
2022-12-17T07:41:18.691Z,965.02
2022-12-17T07:42:18.750Z,965.03
2022-12-17T07:43:18.624Z,964.88
2022-12-17T07:44:18.688Z,965.04
2022-12-17T07:45:19.883Z,965.1
2022-12-17T07:46:18.815Z,965.11
2022-12-17T07:48:19.854Z,965.06
2022-12-17T07:49:22.622Z,965.11
2022-12-17T07:50:18.736Z,965.15
2022-12-17T07:51:18.628Z,965.11
2022-12-17T07:52:18.637Z,965.14
2022-12-17T07:53:18.690Z,965.08
2022-12-17T07:54:18.638Z,965.05
2022-12-17T07:55:18.958Z,965.17
2022-12-17T07:56:18.712Z,965.22
2022-12-17T07:58:18.848Z,965.24
2022-12-17T07:59:18.712Z,965.18
2022-12-17T08:00:18.685Z,965.16
2022-12-17T08:01:18.827Z,965.22
2022-12-17T08:02:18.765Z,965.24
2022-12-17T08:03:19.924Z,965.27
2022-12-17T08:04:18.763Z,965.13
2022-12-17T08:05:18.725Z,965.25
2022-12-17T08:06:18.789Z,965.27
2022-12-17T08:07:18.752Z,965.29
2022-12-17T08:08:18.727Z,965.22
2022-12-17T08:10:18.876Z,965.3
2022-12-17T08:11:18.727Z,965.32
2022-12-17T08:12:18.668Z,965.3
2022-12-17T08:13:18.759Z,965.17
2022-12-17T08:14:18.668Z,965.22
2022-12-17T08:15:18.688Z,965.36
2022-12-17T08:16:18.831Z,965.37
2022-12-17T08:17:18.674Z,965.35
2022-12-17T08:18:22.900Z,965.39
2022-12-17T08:20:18.766Z,965.42
2022-12-17T08:21:18.717Z,965.32
2022-12-17T08:22:18.702Z,965.44
2022-12-17T08:23:18.705Z,965.37
2022-12-17T08:24:18.804Z,965.5
2022-12-17T08:25:18.698Z,965.51
2022-12-17T08:26:18.853Z,965.47
2022-12-17T08:27:18.710Z,965.58
2022-12-17T08:28:48.864Z,965.6
2022-12-17T08:29:18.896Z,965.65
2022-12-17T08:30:18.824Z,965.67
2022-12-17T08:31:18.768Z,965.72
2022-12-17T08:33:18.871Z,965.75
2022-12-17T08:34:18.802Z,965.79
2022-12-17T08:35:18.857Z,965.81
2022-12-17T08:36:18.820Z,965.77
2022-12-17T08:37:18.792Z,965.85
2022-12-17T08:38:18.866Z,965.83
2022-12-17T08:39:18.826Z,965.8
2022-12-17T08:40:18.725Z,965.86
2022-12-17T08:41:18.734Z,965.9
2022-12-17T08:42:18.838Z,965.92
2022-12-17T08:43:18.805Z,965.91
2022-12-17T08:44:18.860Z,965.99
2022-12-17T08:45:18.842Z,966.01
2022-12-17T08:46:18.862Z,966.03
2022-12-17T08:47:18.751Z,966.07
2022-12-17T08:48:18.742Z,965.94
2022-12-17T08:49:18.853Z,965.95
2022-12-17T08:50:18.784Z,965.97
2022-12-17T08:51:18.867Z,966.03
2022-12-17T08:52:18.907Z,966.02
2022-12-17T08:53:18.778Z,966.08
2022-12-17T08:54:18.846Z,965.96
2022-12-17T08:55:18.755Z,966.08
2022-12-17T08:56:18.880Z,966.15
2022-12-17T08:57:30.568Z,966.19
2022-12-17T08:58:18.770Z,966.05
2022-12-17T08:59:19.036Z,966.21
2022-12-17T09:00:18.780Z,966.28
2022-12-17T09:01:19.031Z,966.18
2022-12-17T09:02:18.997Z,966.26
2022-12-17T09:03:18.919Z,966.22
2022-12-17T09:04:18.794Z,966.17
2022-12-17T09:05:18.893Z,966.29
2022-12-17T09:07:18.780Z,966.32
2022-12-17T09:08:18.784Z,966.28
2022-12-17T09:09:18.858Z,966.31
2022-12-17T09:10:18.940Z,966.38
2022-12-17T09:11:18.803Z,966.41
2022-12-17T09:12:18.863Z,966.36
2022-12-17T09:13:20.155Z,966.42
2022-12-17T09:14:18.897Z,966.45
2022-12-17T09:15:18.964Z,966.39
2022-12-17T09:16:18.885Z,966.38
2022-12-17T09:17:18.907Z,966.44
2022-12-17T09:18:18.866Z,966.31
2022-12-17T09:19:18.943Z,966.45
2022-12-17T09:20:18.910Z,966.48
2022-12-17T09:21:18.826Z,966.45
2022-12-17T09:22:18.949Z,966.4
2022-12-17T09:23:18.824Z,966.38
2022-12-17T09:24:18.821Z,966.4
2022-12-17T09:25:18.830Z,966.39
2022-12-17T09:26:18.911Z,966.35
2022-12-17T09:27:20.222Z,966.36
2022-12-17T09:28:18.945Z,966.27
2022-12-17T09:29:19.447Z,966.34
2022-12-17T09:30:18.852Z,966.3
2022-12-17T09:31:19.052Z,966.32
2022-12-17T09:32:18.923Z,966.37
2022-12-17T09:33:20.757Z,966.38
2022-12-17T09:34:18.955Z,966.4
2022-12-17T09:35:18.857Z,966.41
2022-12-17T09:36:23.265Z,966.42
2022-12-17T09:37:18.955Z,966.16
2022-12-17T09:38:18.859Z,966.37
2022-12-17T09:39:19.011Z,966.3
2022-12-17T09:40:18.981Z,966.39
2022-12-17T09:41:20.301Z,966.26
2022-12-17T09:42:18.863Z,966.38
2022-12-17T09:43:18.978Z,966.29
2022-12-17T09:46:19.081Z,966.28
2022-12-17T09:47:18.951Z,966.27
2022-12-17T09:48:20.349Z,966.3
2022-12-17T09:49:18.983Z,966.19
2022-12-17T09:50:18.951Z,966.3
2022-12-17T09:51:19.023Z,966.27
2022-12-17T09:52:19.023Z,966.32
2022-12-17T09:53:18.950Z,966.25
2022-12-17T09:54:18.900Z,966.29
2022-12-17T09:55:18.992Z,966.27
2022-12-17T09:56:18.902Z,966.35
2022-12-17T09:57:18.921Z,966.32
2022-12-17T09:58:19.003Z,966.34
2022-12-17T09:59:18.909Z,966.28
2022-12-17T10:00:19.032Z,966.24
2022-12-17T10:01:19.122Z,966.3
2022-12-17T10:02:19.149Z,966.28
2022-12-17T10:03:19.106Z,966.21
2022-12-17T10:04:18.994Z,966.25
2022-12-17T10:05:19.077Z,966.29
2022-12-17T10:06:22.444Z,966.25
2022-12-17T10:07:19.263Z,966.26
2022-12-17T10:08:19.065Z,966.24
2022-12-17T10:09:19.037Z,966.26
2022-12-17T10:10:19.051Z,965.98
2022-12-17T10:11:18.934Z,966.24
2022-12-17T10:12:19.042Z,966.14
2022-12-17T10:13:19.000Z,966.27
2022-12-17T10:14:19.985Z,966.25
2022-12-17T10:15:19.047Z,966.23
2022-12-17T10:16:19.096Z,966.21
2022-12-17T10:17:19.074Z,966.25
2022-12-17T10:18:18.946Z,966.22
2022-12-17T10:19:19.018Z,966.23
2022-12-17T10:20:20.005Z,966.2
2022-12-17T10:21:19.058Z,966.18
2022-12-17T10:22:20.013Z,966.17
2022-12-17T10:23:20.038Z,966.15
2022-12-17T10:25:20.026Z,966.11
2022-12-17T10:27:19.062Z,966.09
2022-12-17T10:28:20.043Z,966.15
2022-12-17T10:31:19.125Z,966.14
2022-12-17T10:32:19.108Z,966.13
2022-12-17T10:33:19.069Z,966.18
2022-12-17T10:34:19.135Z,966.22
2022-12-17T10:35:19.109Z,966.19
2022-12-17T10:36:18.983Z,966.28
2022-12-17T10:37:19.000Z,966.25
2022-12-17T10:38:19.000Z,966.23
2022-12-17T10:39:19.073Z,966.3
2022-12-17T10:40:20.131Z,966.31
2022-12-17T10:41:19.116Z,966.27
2022-12-17T10:42:19.089Z,966.3
2022-12-17T10:43:19.180Z,966.32
2022-12-17T10:44:19.117Z,966.26
2022-12-17T10:45:19.088Z,966.24
2022-12-17T10:46:19.037Z,966.14
2022-12-17T10:47:19.009Z,966.25
2022-12-17T10:48:19.014Z,966.19
2022-12-17T10:50:19.021Z,966.15
2022-12-17T10:51:19.092Z,966.18
2022-12-17T10:52:19.022Z,966.05
2022-12-17T10:53:19.022Z,966.19
2022-12-17T10:54:19.022Z,966.18
2022-12-17T10:55:19.040Z,966.19
2022-12-17T10:56:19.134Z,966.16
2022-12-17T10:57:19.034Z,966.18
2022-12-17T10:59:19.103Z,966.19
2022-12-17T11:00:19.048Z,966.22
2022-12-17T11:01:19.160Z,966.23
2022-12-17T11:02:19.286Z,966.21
2022-12-17T11:03:20.254Z,966.25
2022-12-17T11:04:19.171Z,966.29
2022-12-17T11:06:19.276Z,966.27
2022-12-17T11:07:19.190Z,966.31
2022-12-17T11:08:19.154Z,966.32
2022-12-17T11:09:19.067Z,966.33
2022-12-17T11:10:19.067Z,966.2
2022-12-17T11:11:19.152Z,966.31
2022-12-17T11:12:19.077Z,966.36
2022-12-17T11:13:19.194Z,966.29
2022-12-17T11:14:19.076Z,966.37
2022-12-17T11:15:19.218Z,966.39
2022-12-17T11:16:19.296Z,966.33
2022-12-17T11:17:19.079Z,966.38
2022-12-17T11:18:19.092Z,966.37
2022-12-17T11:20:19.085Z,966.26
2022-12-17T11:21:19.233Z,966.25
2022-12-17T11:22:19.198Z,966.3
2022-12-17T11:23:19.169Z,966.33
2022-12-17T11:24:22.356Z,966.31
2022-12-17T11:25:19.131Z,966.36
2022-12-17T11:26:19.161Z,966.35
2022-12-17T11:27:19.143Z,966.34
2022-12-17T11:28:19.208Z,966.37
2022-12-17T11:29:19.173Z,966.35
2022-12-17T11:30:19.111Z,966.36
2022-12-17T11:31:19.230Z,966.4
2022-12-17T11:32:19.172Z,966.35
2022-12-17T11:33:19.244Z,966.36
2022-12-17T11:34:19.210Z,966.38
2022-12-17T11:35:19.186Z,966.41
2022-12-17T11:36:21.146Z,966.34
2022-12-17T11:38:20.582Z,966.32
2022-12-17T11:39:19.126Z,966.3
2022-12-17T11:40:19.221Z,966.28
2022-12-17T11:41:19.289Z,966.4
2022-12-17T11:42:19.256Z,966.35
2022-12-17T11:43:19.226Z,966.39
2022-12-17T11:44:19.166Z,966.25
2022-12-17T11:45:19.253Z,966.39
2022-12-17T11:46:19.185Z,966.35
2022-12-17T11:47:19.159Z,966.37
2022-12-17T11:48:19.260Z,966.4
2022-12-17T11:49:19.162Z,966.34
2022-12-17T11:50:19.203Z,966.43
2022-12-17T11:51:19.161Z,966.29
2022-12-17T11:52:19.277Z,966.34
2022-12-17T11:53:24.325Z,966.32
2022-12-17T11:54:19.347Z,966.34
2022-12-17T11:55:19.170Z,966.38
2022-12-17T11:56:19.311Z,966.4
2022-12-17T11:57:19.180Z,966.34
2022-12-17T11:58:19.237Z,966.31
2022-12-17T11:59:19.205Z,966.3
2022-12-17T12:00:19.184Z,966.26
2022-12-17T12:01:19.258Z,966.23
2022-12-17T12:02:19.179Z,966.21
2022-12-17T12:03:19.304Z,966.25
2022-12-17T12:04:19.304Z,966.22
2022-12-17T12:06:19.372Z,966.28
2022-12-17T12:07:19.212Z,966.26
2022-12-17T12:08:19.211Z,966.15
2022-12-17T12:09:19.287Z,966.23
2022-12-17T12:10:19.220Z,966.08
2022-12-17T12:11:19.332Z,966.28
2022-12-17T12:12:19.227Z,966.23
2022-12-17T12:13:20.539Z,966.27
2022-12-17T12:14:19.336Z,966.3
2022-12-17T12:15:19.308Z,966.29
2022-12-17T12:16:19.400Z,966.3
2022-12-17T12:17:19.233Z,966.29
2022-12-17T12:18:19.231Z,966.31
2022-12-17T12:19:19.377Z,966.28
2022-12-17T12:22:22.702Z,966.31
2022-12-17T12:23:19.346Z,966.36
2022-12-17T12:24:19.313Z,966.31
2022-12-17T12:25:19.378Z,966.39
2022-12-17T12:27:19.326Z,966.37
2022-12-17T12:28:20.642Z,966.39
2022-12-17T12:29:19.357Z,966.32
2022-12-17T12:30:19.317Z,966.31
2022-12-17T12:31:19.279Z,966.39
2022-12-17T12:32:19.364Z,966.26
2022-12-17T12:33:19.325Z,966.36
2022-12-17T12:34:19.402Z,966.34
2022-12-17T12:35:19.381Z,966.35
2022-12-17T12:36:19.258Z,966.39
2022-12-17T12:38:19.362Z,966.38
2022-12-17T12:39:19.331Z,966.37
2022-12-17T12:40:19.395Z,966.31
2022-12-17T12:41:19.287Z,966.35
2022-12-17T12:42:19.281Z,966.27
2022-12-17T12:43:19.290Z,966.33
2022-12-17T12:44:19.369Z,966.32
2022-12-17T12:45:19.285Z,966.33
2022-12-17T12:46:19.422Z,966.23
2022-12-17T12:47:19.376Z,966.31
2022-12-17T12:48:19.295Z,966.27
2022-12-17T12:49:19.417Z,966.29
2022-12-17T12:50:19.310Z,966.27
2022-12-17T12:51:19.298Z,966.24
2022-12-17T12:52:19.413Z,966.28
2022-12-17T12:53:19.382Z,966.22
2022-12-17T12:54:19.444Z,966.3
2022-12-17T12:55:19.426Z,966.31
2022-12-17T12:56:19.384Z,966.27
2022-12-17T12:57:19.450Z,966.26
2022-12-17T12:58:19.419Z,966.21
2022-12-17T12:59:19.316Z,966.24
2022-12-17T13:01:19.605Z,966.25
2022-12-17T13:03:19.568Z,966.17
2022-12-17T13:04:19.443Z,966.26
2022-12-17T13:05:19.402Z,966.22
2022-12-17T13:06:19.470Z,966.18
2022-12-17T13:07:19.332Z,966.25
2022-12-17T13:08:19.400Z,966.22
2022-12-17T13:09:19.357Z,966.24
2022-12-17T13:10:19.453Z,966.05
2022-12-17T13:11:19.410Z,966.33
2022-12-17T13:12:19.478Z,966.3
2022-12-17T13:13:19.352Z,966.32
2022-12-17T13:14:19.518Z,966.37
2022-12-17T13:15:19.352Z,966.3
2022-12-17T13:16:19.492Z,966.35
2022-12-17T13:17:19.427Z,966.36
2022-12-17T13:18:19.386Z,966.33
2022-12-17T13:19:19.363Z,966.3
2022-12-17T13:20:19.417Z,966.34
2022-12-17T13:21:19.492Z,966.32
2022-12-17T13:22:23.898Z,966.28
2022-12-17T13:23:19.377Z,966.3
2022-12-17T13:24:19.381Z,966.32
2022-12-17T13:25:19.470Z,966.23
2022-12-17T13:26:19.434Z,966.25
2022-12-17T13:27:19.391Z,966.28
2022-12-17T13:28:22.920Z,966.29
2022-12-17T13:29:19.749Z,966.28
2022-12-17T13:30:19.387Z,966.31
2022-12-17T13:32:19.444Z,966.38
2022-12-17T13:33:19.538Z,966.26
2022-12-17T13:34:19.471Z,966.33
2022-12-17T13:35:19.407Z,966.37
2022-12-17T13:36:19.399Z,966.35
2022-12-17T13:37:19.485Z,966.36
2022-12-17T13:38:19.560Z,966.38
2022-12-17T13:39:19.525Z,966.4
2022-12-17T13:40:19.486Z,966.45
2022-12-17T13:41:19.428Z,966.39
2022-12-17T13:42:19.516Z,966.42
2022-12-17T13:43:19.503Z,966.46
2022-12-17T13:44:19.555Z,966.37
2022-12-17T13:45:19.423Z,966.42
2022-12-17T13:46:19.551Z,966.35
2022-12-17T13:47:19.577Z,966.43
2022-12-17T13:48:19.547Z,966.3
2022-12-17T13:49:19.511Z,966.41
2022-12-17T13:50:35.444Z,966.49
2022-12-17T13:51:19.721Z,966.53
2022-12-17T13:52:19.451Z,966.5